This is the latest recevied weather packets stored in our database for station/object HK4K-15. If no packets are shown the sender has not sent any weather packets the latest 10 day(s).
| Time | Temp. | Humidity | Pressure | Rain* | Wind** | Luminosity | Snow |
|---|---|---|---|---|---|---|---|
| 1787947038 | 27.22° C | 44% | 1007 hPa | 0 mm | - | - | - |
| 1787944997 | 27.22° C | 43% | 1007 hPa | 0 mm | - | - | - |
| 1787943976 | 27.22° C | 43% | 1007 hPa | 0 mm | - | - | - |
| 1787942956 | 27.22° C | 46% | 1007 hPa | 0 mm | - | - | - |
| 1787941935 | 27.22° C | 46% | 1008 hPa | 0 mm | - | - | - |
| 1787940915 | 27.22° C | 46% | 1008 hPa | 0 mm | - | - | - |
| 1787937854 | 26.67° C | 44% | 1010 hPa | 0 mm | - | - | - |
| 1787936833 | 27.22° C | 43% | 1010 hPa | 0 mm | - | - | - |
| 1787935813 | 27.78° C | 42% | 1010 hPa | 0 mm | - | - | - |
| 1787933771 | 25° C | 56% | 1011 hPa | 0 mm | - | - | - |
| 1787930710 | 25° C | 57% | 1013 hPa | 0 mm | - | - | - |
| 1787929690 | 25° C | 56% | 1013 hPa | 0 mm | - | - | - |
| 1787928669 | 23.33° C | 61% | 1013 hPa | 0 mm | - | - | - |
| 1787926628 | 21.11° C | 66% | 1014 hPa | 0 mm | - | - | - |
| 1787925621 | 20.56° C | 68% | 1014 hPa | 0 mm | - | - | - |
| 1787923567 | 17.78° C | 81% | 1014 hPa | 0 mm | - | - | - |
| 1787922547 | 18.33° C | 80% | 1014 hPa | 0 mm | - | - | - |
| 1787921526 | 18.89° C | 79% | 1014 hPa | 0 mm | - | - | - |
| 1787920505 | 17.22° C | 94% | 1014 hPa | 0 mm | - | - | - |
| 1787919485 | 15° C | 96% | 1015 hPa | 0 mm | - | - | - |
| 1787918464 | 15° C | 96% | 1015 hPa | 0 mm | - | - | - |
| 1787917444 | 15° C | 96% | 1015 hPa | 0 mm | - | - | - |
| 1787916424 | 15.56° C | 96% | 1015 hPa | 0 mm | - | - | - |
| 1787915403 | 16.11° C | 97% | 1015 hPa | 0 mm | - | - | - |
| 1787913362 | 16.67° C | 97% | 1015 hPa | 0 mm | - | - | - |
* Rain latest hour (hover to see other rain measurements)
** Current wind speed in m/s (hover to see current wind gust speed)